createdAt,value
2019-01-20T00:01:34.358Z,26.00
2019-01-20T00:04:04.066Z,25.33
2019-01-20T00:06:33.676Z,25.17
2019-01-20T00:09:03.195Z,24.97
2019-01-20T00:11:32.372Z,23.77
2019-01-20T00:14:01.592Z,23.77
2019-01-20T00:16:31.108Z,23.87
2019-01-20T00:19:00.325Z,23.87
2019-01-20T00:21:29.638Z,24.97
2019-01-20T00:23:58.843Z,24.40
2019-01-20T00:26:28.028Z,23.50
2019-01-20T00:28:57.181Z,23.57
2019-01-20T00:31:26.366Z,23.47
2019-01-20T00:33:56.174Z,24.57
2019-01-20T00:36:25.342Z,24.03
2019-01-20T00:38:54.574Z,23.37
2019-01-20T00:41:24.255Z,22.93
2019-01-20T00:43:53.603Z,25.40
2019-01-20T00:46:23.108Z,22.70
2019-01-20T00:48:52.281Z,22.50
2019-01-20T00:51:21.612Z,23.00
2019-01-20T00:53:51.100Z,23.33
2019-01-20T00:56:20.389Z,24.43
2019-01-20T00:58:49.589Z,22.60
2019-01-20T01:01:18.817Z,23.47
2019-01-20T01:03:48.298Z,23.10
2019-01-20T01:06:17.968Z,22.57
2019-01-20T01:08:47.580Z,22.90
2019-01-20T01:11:17.109Z,23.10
2019-01-20T01:13:46.298Z,23.60
2019-01-20T01:16:15.481Z,23.60
2019-01-20T01:18:45.079Z,24.33
2019-01-20T01:21:15.034Z,22.37
2019-01-20T01:23:44.639Z,22.87
2019-01-20T01:26:13.801Z,24.77
2019-01-20T01:28:42.965Z,23.40
2019-01-20T01:31:12.126Z,22.77
2019-01-20T01:33:41.288Z,24.30
2019-01-20T01:36:10.554Z,23.07
2019-01-20T01:38:39.702Z,22.57
2019-01-20T01:41:08.874Z,23.57
2019-01-20T01:43:38.129Z,22.93
2019-01-20T01:46:07.764Z,21.70
2019-01-20T01:48:37.232Z,23.53
2019-01-20T01:51:06.424Z,23.73
2019-01-20T01:53:36.324Z,22.47
2019-01-20T01:56:06.204Z,23.00
2019-01-20T01:58:35.451Z,22.23
2019-01-20T02:01:05.070Z,23.20
2019-01-20T02:03:34.256Z,22.27
2019-01-20T02:06:03.494Z,22.57
2019-01-20T02:08:33.340Z,22.57
2019-01-20T02:11:02.626Z,22.00
2019-01-20T02:13:31.934Z,22.87
2019-01-20T02:16:01.081Z,21.47
2019-01-20T02:18:30.248Z,21.83
2019-01-20T02:20:59.553Z,23.90
2019-01-20T02:23:28.817Z,21.50
2019-01-20T02:25:57.997Z,21.57
2019-01-20T02:28:27.537Z,21.73
2019-01-20T02:30:56.775Z,22.40
2019-01-20T02:33:26.015Z,23.13
2019-01-20T02:35:55.199Z,22.33
2019-01-20T02:38:24.447Z,21.73
2019-01-20T02:40:53.591Z,22.40
2019-01-20T02:43:23.125Z,23.13
2019-01-20T02:45:52.300Z,23.13
2019-01-20T02:48:21.556Z,21.50
2019-01-20T02:50:50.739Z,22.13
2019-01-20T02:53:19.927Z,22.87
2019-01-20T02:55:49.182Z,24.00
2019-01-20T02:58:18.431Z,23.27
2019-01-20T03:00:47.588Z,22.40
2019-01-20T03:03:16.829Z,22.50
2019-01-20T03:05:46.040Z,22.07
2019-01-20T03:08:15.207Z,21.53
2019-01-20T03:10:44.360Z,22.43
2019-01-20T03:13:13.606Z,22.43
2019-01-20T03:15:42.778Z,22.03
2019-01-20T03:18:11.927Z,23.27
2019-01-20T03:20:41.100Z,22.90
2019-01-20T03:23:10.346Z,21.43
2019-01-20T03:25:40.061Z,22.00
2019-01-20T03:28:09.229Z,22.07
2019-01-20T03:30:38.408Z,21.83
2019-01-20T03:33:07.752Z,20.97
2019-01-20T03:35:37.260Z,21.93
2019-01-20T03:38:06.851Z,22.00
2019-01-20T03:40:36.595Z,21.87
2019-01-20T03:43:05.844Z,21.50
2019-01-20T03:45:35.048Z,20.93
2019-01-20T03:48:04.729Z,22.47
2019-01-20T03:50:33.963Z,21.70
2019-01-20T03:53:03.221Z,20.73
2019-01-20T03:55:32.631Z,21.93
2019-01-20T03:58:01.916Z,22.20
2019-01-20T04:00:31.135Z,23.10
2019-01-20T04:03:04.453Z,20.30
2019-01-20T04:05:33.646Z,20.80
2019-01-20T04:08:02.877Z,21.47
2019-01-20T04:10:32.527Z,22.33
2019-01-20T04:13:01.739Z,20.97
2019-01-20T04:15:31.065Z,20.53
2019-01-20T04:18:00.269Z,19.87
2019-01-20T04:20:29.430Z,21.63
2019-01-20T04:22:58.976Z,21.33
2019-01-20T04:25:28.548Z,20.90
2019-01-20T04:27:57.773Z,21.10
2019-01-20T04:30:27.384Z,20.67
2019-01-20T04:32:56.974Z,21.20
2019-01-20T04:35:26.476Z,20.70
2019-01-20T04:37:56.385Z,21.33
2019-01-20T04:40:25.618Z,22.43
2019-01-20T04:42:54.782Z,20.80
2019-01-20T04:45:23.998Z,20.87
2019-01-20T04:47:53.544Z,21.80
2019-01-20T04:50:24.260Z,20.77
2019-01-20T04:52:53.707Z,21.10
2019-01-20T04:55:23.211Z,20.90
2019-01-20T04:57:56.114Z,22.00
2019-01-20T05:00:27.054Z,20.80
2019-01-20T05:02:56.241Z,21.10
2019-01-20T05:05:25.612Z,20.87
2019-01-20T05:07:54.807Z,22.43
2019-01-20T05:10:24.352Z,19.73
2019-01-20T05:12:53.590Z,21.17
2019-01-20T05:15:24.783Z,20.07
2019-01-20T05:17:54.977Z,20.87
2019-01-20T05:20:24.482Z,20.57
2019-01-20T05:22:54.143Z,21.87
2019-01-20T05:25:23.450Z,21.47
2019-01-20T05:27:53.279Z,20.63
2019-01-20T05:30:25.173Z,19.80
2019-01-20T05:32:54.433Z,20.03
2019-01-20T05:35:23.703Z,20.57
2019-01-20T05:37:53.117Z,20.73
2019-01-20T05:40:22.939Z,20.43
2019-01-20T05:42:52.147Z,19.73
2019-01-20T05:45:23.225Z,20.67
2019-01-20T05:47:53.061Z,20.27
2019-01-20T05:50:22.310Z,20.30
2019-01-20T05:52:51.872Z,20.03
2019-01-20T05:55:21.174Z,21.70
2019-01-20T05:57:50.428Z,20.17
2019-01-20T06:00:30.948Z,19.60
2019-01-20T06:03:00.488Z,20.80
2019-01-20T06:05:29.697Z,20.07
2019-01-20T06:07:58.858Z,19.20
2019-01-20T06:10:28.722Z,18.57
2019-01-20T06:12:57.884Z,18.70
2019-01-20T06:15:27.070Z,19.57
2019-01-20T06:17:56.230Z,17.80
2019-01-20T06:20:25.416Z,20.10
2019-01-20T06:22:54.899Z,19.90
2019-01-20T06:25:24.182Z,19.40
2019-01-20T06:27:53.376Z,18.37
2019-01-20T06:30:40.878Z,19.73
2019-01-20T06:33:10.323Z,19.63
2019-01-20T06:35:39.821Z,20.07
2019-01-20T06:38:09.407Z,20.53
2019-01-20T06:40:38.983Z,20.53
2019-01-20T06:43:08.543Z,20.90
2019-01-20T06:45:38.153Z,20.87
2019-01-20T06:48:07.341Z,22.10
2019-01-20T06:50:36.504Z,22.57
2019-01-20T06:53:06.060Z,22.20
2019-01-20T06:55:35.563Z,22.50
2019-01-20T06:58:04.958Z,21.97
2019-01-20T07:00:34.438Z,21.57
2019-01-20T07:03:03.955Z,20.93
2019-01-20T07:05:33.139Z,23.17
2019-01-20T07:08:02.406Z,22.23
2019-01-20T07:10:32.219Z,21.67
2019-01-20T07:13:08.895Z,22.37
2019-01-20T07:15:32.731Z,22.60
2019-01-20T07:18:02.325Z,21.97
2019-01-20T07:20:31.561Z,22.53
2019-01-20T07:23:00.857Z,23.60
2019-01-20T07:25:30.108Z,23.50
2019-01-20T07:27:59.286Z,22.23
2019-01-20T07:30:28.458Z,21.33
2019-01-20T07:32:58.011Z,20.73
2019-01-20T07:35:27.279Z,20.67
2019-01-20T07:37:56.451Z,21.77
2019-01-20T07:40:25.738Z,21.57
2019-01-20T07:42:55.562Z,21.17
2019-01-20T07:45:24.927Z,21.67
2019-01-20T07:47:54.455Z,21.53
2019-01-20T07:50:25.505Z,21.20
2019-01-20T07:52:54.944Z,20.77
2019-01-20T07:55:24.125Z,21.67
2019-01-20T07:57:53.308Z,20.37
2019-01-20T08:00:24.530Z,21.07
2019-01-20T08:02:53.690Z,22.33
2019-01-20T08:05:23.027Z,24.43
2019-01-20T08:07:52.550Z,23.93
2019-01-20T08:10:27.137Z,24.23
2019-01-20T08:12:56.619Z,25.20
2019-01-20T08:15:26.225Z,25.93
2019-01-20T08:17:55.795Z,26.23
2019-01-20T08:20:25.664Z,24.37
2019-01-20T08:22:54.921Z,24.77
2019-01-20T08:25:24.545Z,23.60
2019-01-20T08:27:53.731Z,24.53
2019-01-20T08:30:27.568Z,24.13
2019-01-20T08:32:56.811Z,23.60
2019-01-20T08:35:25.994Z,23.83
2019-01-20T08:37:55.441Z,24.13
2019-01-20T08:40:30.140Z,23.70
2019-01-20T08:42:59.530Z,23.90
2019-01-20T08:46:01.737Z,24.03
2019-01-20T08:48:32.465Z,25.53
2019-01-20T08:51:01.838Z,28.23
2019-01-20T08:53:31.092Z,27.73
2019-01-20T08:56:01.152Z,25.37
2019-01-20T08:58:30.388Z,24.23
2019-01-20T09:00:59.629Z,23.87
2019-01-20T09:03:29.252Z,23.80
2019-01-20T09:05:58.567Z,23.70
2019-01-20T09:08:27.716Z,24.63
2019-01-20T09:10:57.197Z,25.13
2019-01-20T09:13:26.567Z,24.30
2019-01-20T09:15:56.410Z,24.97
2019-01-20T09:18:26.210Z,22.90
2019-01-20T09:20:55.719Z,24.63
2019-01-20T09:23:25.053Z,25.63
2019-01-20T09:25:54.308Z,24.13
2019-01-20T09:28:23.936Z,24.37
2019-01-20T09:30:53.145Z,25.00
2019-01-20T09:33:24.701Z,23.47
2019-01-20T09:35:53.289Z,26.13
2019-01-20T09:38:22.640Z,24.03
2019-01-20T09:40:51.909Z,24.73
2019-01-20T09:43:21.080Z,24.97
2019-01-20T09:45:51.239Z,25.50
2019-01-20T09:48:20.394Z,24.47
2019-01-20T09:50:49.572Z,25.30
2019-01-20T09:53:18.731Z,24.63
2019-01-20T09:55:47.921Z,23.63
2019-01-20T09:58:17.159Z,23.93
2019-01-20T10:00:46.407Z,24.43
2019-01-20T10:03:16.368Z,24.53
2019-01-20T10:05:45.954Z,25.17
2019-01-20T10:08:15.564Z,25.93
2019-01-20T10:10:44.791Z,24.60
2019-01-20T10:13:14.278Z,25.07
2019-01-20T10:15:43.465Z,23.90
2019-01-20T10:18:12.712Z,25.37
2019-01-20T10:20:41.937Z,25.40
2019-01-20T10:23:11.427Z,24.43
2019-01-20T10:25:40.677Z,23.70
2019-01-20T10:28:12.311Z,26.57
2019-01-20T10:30:41.478Z,24.43
2019-01-20T10:33:10.642Z,24.07
2019-01-20T10:35:47.382Z,23.87
2019-01-20T10:38:16.647Z,24.07
2019-01-20T10:40:45.999Z,24.47
2019-01-20T10:43:15.321Z,23.37
2019-01-20T10:45:44.499Z,21.93
2019-01-20T10:48:13.654Z,20.37
2019-01-20T10:50:42.824Z,18.80
2019-01-20T10:53:12.418Z,18.67
2019-01-20T10:55:41.954Z,18.03
2019-01-20T10:58:11.230Z,18.57
2019-01-20T11:00:41.596Z,18.97
2019-01-20T11:03:11.285Z,19.57
2019-01-20T11:05:40.537Z,18.37
2019-01-20T11:08:09.780Z,18.93
2019-01-20T11:10:39.959Z,18.23
2019-01-20T11:13:09.505Z,19.03
2019-01-20T11:15:39.110Z,17.87
2019-01-20T11:18:08.623Z,17.17
2019-01-20T11:20:37.813Z,17.47
2019-01-20T11:23:07.840Z,17.20
2019-01-20T11:25:39.613Z,18.20
2019-01-20T11:28:09.191Z,17.53
2019-01-20T11:30:38.697Z,17.80
2019-01-20T11:33:08.467Z,16.77
2019-01-20T11:35:38.063Z,19.53
2019-01-20T11:38:07.445Z,18.90
2019-01-20T11:40:36.605Z,17.13
2019-01-20T11:43:05.880Z,18.17
2019-01-20T11:45:36.691Z,17.27
2019-01-20T11:48:06.404Z,16.97
2019-01-20T11:50:35.778Z,16.37
2019-01-20T11:53:05.573Z,17.23
2019-01-20T11:55:35.774Z,17.17
2019-01-20T11:58:05.415Z,16.60
2019-01-20T12:00:36.846Z,16.10
2019-01-20T12:03:07.450Z,16.90
2019-01-20T12:05:38.960Z,16.40
2019-01-20T12:08:08.552Z,17.03
2019-01-20T12:10:37.743Z,15.60
2019-01-20T12:13:09.086Z,17.07
2019-01-20T12:15:38.266Z,15.90
2019-01-20T12:18:07.849Z,16.67
2019-01-20T12:20:37.378Z,16.57
2019-01-20T12:23:06.544Z,18.70
2019-01-20T12:25:35.952Z,17.50
2019-01-20T12:28:05.483Z,17.00
2019-01-20T12:30:36.386Z,17.40
2019-01-20T12:33:06.340Z,17.77
2019-01-20T12:35:35.585Z,16.00
2019-01-20T12:38:04.809Z,16.70
2019-01-20T12:40:37.113Z,17.70
2019-01-20T12:43:06.267Z,17.13
2019-01-20T12:45:35.804Z,16.30
2019-01-20T12:48:06.166Z,15.80
2019-01-20T12:50:35.448Z,15.93
2019-01-20T12:53:05.403Z,15.23
2019-01-20T12:55:35.096Z,16.43
2019-01-20T12:58:04.523Z,16.03
2019-01-20T13:00:34.349Z,15.43
2019-01-20T13:03:03.563Z,15.90
2019-01-20T13:05:33.074Z,15.37
2019-01-20T13:08:02.575Z,14.63
2019-01-20T13:10:32.204Z,15.10
2019-01-20T13:13:01.759Z,14.70
2019-01-20T13:15:31.303Z,14.13
2019-01-20T13:18:00.780Z,14.80
2019-01-20T13:20:29.933Z,14.50
2019-01-20T13:22:59.092Z,14.50
2019-01-20T13:25:30.035Z,14.97
2019-01-20T13:27:59.213Z,14.20
2019-01-20T13:30:29.336Z,16.53
2019-01-20T13:32:58.478Z,16.77
2019-01-20T13:35:28.475Z,14.90
2019-01-20T13:38:06.581Z,16.40
2019-01-20T13:40:42.089Z,15.37
2019-01-20T13:43:11.232Z,15.27
2019-01-20T13:45:40.438Z,16.77
2019-01-20T13:48:09.577Z,16.27
2019-01-20T13:50:38.772Z,18.57
2019-01-20T13:53:07.916Z,20.00
2019-01-20T13:55:37.091Z,20.27
2019-01-20T13:58:06.269Z,19.90
2019-01-20T14:00:35.522Z,19.23
2019-01-20T14:03:04.692Z,21.17
2019-01-20T14:05:33.916Z,20.63
2019-01-20T14:08:03.164Z,20.17
2019-01-20T14:10:32.389Z,18.23
2019-01-20T14:13:01.684Z,19.57
2019-01-20T14:15:31.557Z,19.70
2019-01-20T14:18:00.707Z,18.93
2019-01-20T14:20:29.877Z,17.77
2019-01-20T14:22:59.058Z,18.90
2019-01-20T14:25:28.522Z,19.43
2019-01-20T14:27:58.057Z,18.00
2019-01-20T14:30:29.460Z,19.53
2019-01-20T14:32:58.821Z,18.83
2019-01-20T14:35:27.979Z,18.53
2019-01-20T14:37:57.200Z,20.23
2019-01-20T14:40:26.450Z,22.13
2019-01-20T14:42:56.457Z,20.70
2019-01-20T14:45:25.634Z,22.10
2019-01-20T14:47:54.811Z,22.80
2019-01-20T14:50:25.461Z,24.70
2019-01-20T14:52:55.020Z,25.37
2019-01-20T14:55:25.046Z,24.03
2019-01-20T14:57:54.232Z,24.83
2019-01-20T15:00:29.586Z,24.47
2019-01-20T15:02:59.470Z,25.20
2019-01-20T15:05:28.630Z,26.27
2019-01-20T15:07:58.012Z,26.03
2019-01-20T15:10:27.663Z,25.50
2019-01-20T15:12:57.246Z,27.60
2019-01-20T15:15:46.129Z,26.40
2019-01-20T15:18:15.419Z,25.80
2019-01-20T15:20:45.270Z,25.10
2019-01-20T15:23:14.414Z,26.20
2019-01-20T15:25:43.757Z,26.13
2019-01-20T15:28:13.373Z,26.60
2019-01-20T15:30:43.022Z,27.17
2019-01-20T15:33:12.166Z,28.33
2019-01-20T15:35:42.100Z,27.97
2019-01-20T15:38:11.550Z,27.93
2019-01-20T15:40:40.922Z,29.53
2019-01-20T15:43:10.079Z,28.10
2019-01-20T15:45:39.695Z,27.50
2019-01-20T15:48:09.405Z,27.57
2019-01-20T15:50:39.021Z,28.37
2019-01-20T15:53:08.221Z,29.77
2019-01-20T15:55:37.487Z,29.17
2019-01-20T15:58:06.660Z,30.43
2019-01-20T16:00:36.293Z,32.73
2019-01-20T16:03:06.101Z,33.90
2019-01-20T16:05:35.627Z,34.27
2019-01-20T16:08:05.225Z,32.23
2019-01-20T16:10:34.419Z,31.97
2019-01-20T16:13:03.625Z,31.73
2019-01-20T16:15:35.187Z,32.70
2019-01-20T16:18:23.519Z,33.37
2019-01-20T16:20:52.869Z,33.60
2019-01-20T16:23:22.570Z,34.33
2019-01-20T16:25:51.947Z,33.13
2019-01-20T16:28:21.280Z,34.10
2019-01-20T16:30:50.893Z,36.63
2019-01-20T16:33:24.811Z,37.17
2019-01-20T16:35:51.358Z,36.53
2019-01-20T16:38:20.569Z,36.47
2019-01-20T16:40:50.970Z,36.73
2019-01-20T16:43:21.676Z,36.83
2019-01-20T16:45:50.860Z,39.83
2019-01-20T16:48:20.271Z,37.43
2019-01-20T16:50:49.559Z,39.53
2019-01-20T16:53:18.802Z,38.57
2019-01-20T16:55:47.988Z,39.67
2019-01-20T16:58:17.171Z,39.83
2019-01-20T17:00:47.237Z,41.30
2019-01-20T17:03:17.333Z,40.43
2019-01-20T17:05:46.641Z,40.73
2019-01-20T17:08:16.250Z,39.53
2019-01-20T17:10:45.721Z,37.10
2019-01-20T17:13:15.569Z,37.67
2019-01-20T17:15:46.034Z,36.47
2019-01-20T17:18:16.662Z,33.37
2019-01-20T17:20:46.011Z,31.67
2019-01-20T17:23:15.798Z,32.40
2019-01-20T17:25:45.855Z,34.30
2019-01-20T17:28:15.041Z,33.57
2019-01-20T17:30:44.540Z,34.40
2019-01-20T17:33:14.526Z,33.50
2019-01-20T17:35:43.786Z,32.57
2019-01-20T17:38:13.132Z,34.90
2019-01-20T17:40:42.473Z,37.97
2019-01-20T17:43:11.759Z,35.97
2019-01-20T17:45:49.624Z,36.37
2019-01-20T17:48:14.346Z,36.03
2019-01-20T17:50:44.784Z,36.20
2019-01-20T17:53:14.389Z,37.03
2019-01-20T17:55:43.805Z,35.43
2019-01-20T17:58:13.016Z,36.43
2019-01-20T18:01:10.853Z,37.40
2019-01-20T18:03:47.175Z,37.50
2019-01-20T18:06:17.586Z,39.03
2019-01-20T18:08:49.099Z,39.93
2019-01-20T18:11:18.298Z,41.23
2019-01-20T18:13:49.001Z,40.47
2019-01-20T18:16:23.949Z,39.37
2019-01-20T18:18:53.346Z,40.57
2019-01-20T18:21:22.636Z,40.40
2019-01-20T18:23:52.221Z,41.60
2019-01-20T18:26:21.763Z,42.13
2019-01-20T18:28:51.419Z,43.47
2019-01-20T18:31:21.100Z,41.50
2019-01-20T18:33:50.415Z,42.67
2019-01-20T18:36:19.705Z,41.63
2019-01-20T18:38:50.753Z,40.90
2019-01-20T18:41:19.943Z,43.07
2019-01-20T18:43:49.491Z,41.37
2019-01-20T18:46:19.041Z,43.03
2019-01-20T18:48:48.599Z,41.33
2019-01-20T18:51:17.875Z,40.37
2019-01-20T18:53:47.047Z,37.57
2019-01-20T18:56:16.336Z,41.70
2019-01-20T18:58:45.483Z,41.40
2019-01-20T19:01:16.211Z,46.03
2019-01-20T19:03:45.546Z,44.43
2019-01-20T19:06:15.408Z,40.73
2019-01-20T19:08:46.808Z,38.33
2019-01-20T19:11:15.986Z,36.70
2019-01-20T19:13:45.582Z,35.10
2019-01-20T19:16:15.122Z,33.70
2019-01-20T19:18:44.454Z,32.37
2019-01-20T19:21:13.998Z,32.13
2019-01-20T19:23:43.200Z,31.70
2019-01-20T19:26:12.422Z,30.70
2019-01-20T19:28:41.670Z,30.80
2019-01-20T19:31:20.753Z,31.67
2019-01-20T19:33:50.944Z,31.93
2019-01-20T19:36:20.097Z,30.00
2019-01-20T19:38:49.263Z,28.97
2019-01-20T19:41:18.447Z,29.27
2019-01-20T19:43:47.996Z,28.67
2019-01-20T19:46:17.455Z,28.40
2019-01-20T19:48:46.608Z,28.10
2019-01-20T19:51:15.818Z,27.37
2019-01-20T19:53:45.059Z,27.13
2019-01-20T19:56:14.245Z,26.97
2019-01-20T19:58:43.433Z,27.20
2019-01-20T20:01:12.643Z,27.10
2019-01-20T20:03:41.829Z,26.67
2019-01-20T20:06:11.067Z,28.27
2019-01-20T20:08:40.235Z,28.60
2019-01-20T20:11:09.786Z,27.87
2019-01-20T20:13:39.027Z,29.07
2019-01-20T20:16:08.317Z,29.77
2019-01-20T20:18:37.825Z,29.33
2019-01-20T20:21:07.055Z,27.87
2019-01-20T20:23:36.332Z,27.77
2019-01-20T20:26:05.970Z,28.77
2019-01-20T20:28:35.140Z,28.37
2019-01-20T20:31:04.531Z,26.83
2019-01-20T20:33:34.212Z,25.83
2019-01-20T20:36:03.717Z,27.43
2019-01-20T20:38:33.248Z,26.77
2019-01-20T20:41:02.724Z,28.23
2019-01-20T20:43:31.920Z,28.57
2019-01-20T20:46:01.100Z,26.43
2019-01-20T20:48:30.640Z,29.07
2019-01-20T20:50:59.801Z,28.23
2019-01-20T20:53:29.356Z,28.87
2019-01-20T20:55:58.519Z,28.67
2019-01-20T20:58:27.665Z,28.50
2019-01-20T21:00:57.575Z,28.27
2019-01-20T21:03:32.598Z,28.13
2019-01-20T21:06:02.149Z,29.03
2019-01-20T21:08:31.316Z,28.00
2019-01-20T21:11:00.553Z,26.90
2019-01-20T21:13:29.708Z,27.37
2019-01-20T21:15:59.017Z,26.23
2019-01-20T21:18:28.556Z,26.83
2019-01-20T21:20:58.060Z,26.13
2019-01-20T21:23:27.593Z,25.93
2019-01-20T21:25:57.434Z,28.90
2019-01-20T21:28:26.677Z,28.53
2019-01-20T21:30:56.266Z,27.27
2019-01-20T21:33:25.827Z,24.93
2019-01-20T21:35:55.305Z,25.43
2019-01-20T21:38:24.925Z,23.77
2019-01-20T21:40:54.071Z,24.40
2019-01-20T21:43:23.246Z,25.20
2019-01-20T21:45:52.414Z,24.67
2019-01-20T21:48:21.671Z,24.40
2019-01-20T21:50:50.923Z,24.50
2019-01-20T21:53:20.102Z,24.10
2019-01-20T21:55:49.276Z,24.93
2019-01-20T21:58:18.503Z,24.57
2019-01-20T22:00:47.681Z,24.77
2019-01-20T22:03:16.907Z,24.43
2019-01-20T22:05:46.054Z,24.70
2019-01-20T22:08:15.219Z,24.23
2019-01-20T22:10:44.774Z,23.93
2019-01-20T22:13:14.354Z,23.50
2019-01-20T22:15:43.867Z,22.93
2019-01-20T22:18:13.069Z,21.77
2019-01-20T22:20:42.251Z,22.37
2019-01-20T22:23:11.561Z,21.10
2019-01-20T22:25:41.060Z,21.30
2019-01-20T22:28:10.479Z,21.40
2019-01-20T22:30:39.774Z,21.50
2019-01-20T22:33:09.012Z,21.87
2019-01-20T22:35:38.465Z,21.03
2019-01-20T22:38:08.595Z,20.33
2019-01-20T22:40:38.196Z,20.87
2019-01-20T22:43:07.358Z,21.77
2019-01-20T22:45:36.532Z,23.17
2019-01-20T22:48:05.982Z,22.80
2019-01-20T22:50:35.150Z,23.63
2019-01-20T22:53:04.342Z,22.63
2019-01-20T22:55:33.493Z,22.50
2019-01-20T22:58:03.300Z,22.83
2019-01-20T23:00:55.953Z,22.53
2019-01-20T23:03:25.389Z,22.77
2019-01-20T23:05:55.895Z,21.57
2019-01-20T23:08:25.178Z,21.20
2019-01-20T23:10:54.469Z,22.87
2019-01-20T23:13:23.962Z,20.07
2019-01-20T23:15:53.277Z,21.80
2019-01-20T23:18:22.529Z,21.20
2019-01-20T23:20:51.707Z,20.90
2019-01-20T23:23:21.033Z,22.10
2019-01-20T23:25:50.553Z,21.13
2019-01-20T23:28:19.785Z,21.50
2019-01-20T23:30:48.954Z,21.20
2019-01-20T23:33:18.103Z,22.00
2019-01-20T23:35:47.272Z,21.50
2019-01-20T23:38:16.439Z,20.33
2019-01-20T23:40:46.064Z,20.87
2019-01-20T23:43:15.231Z,21.27
2019-01-20T23:45:44.741Z,21.40
2019-01-20T23:48:14.252Z,20.97
2019-01-20T23:50:43.410Z,20.40
2019-01-20T23:53:12.859Z,21.43
2019-01-20T23:55:42.103Z,20.90
2019-01-20T23:58:11.633Z,21.70
